sensor_id;sensor_type;location;lat;lon;timestamp;pressure;altitude;pressure_sealevel;temperature;humidity
80945;BME280;70400;50.934;11.590;2023-07-24T00:00:12;99206.81;;;21.41;52.81
80945;BME280;70400;50.934;11.590;2023-07-24T00:01:02;99208.91;;;21.39;52.16
80945;BME280;70400;50.934;11.590;2023-07-24T00:01:53;99203.28;;;21.29;52.54
80945;BME280;70400;50.934;11.590;2023-07-24T00:02:44;99198.63;;;21.24;53.04
80945;BME280;70400;50.934;11.590;2023-07-24T00:03:35;99205.28;;;21.22;52.94
80945;BME280;70400;50.934;11.590;2023-07-24T00:04:26;99206.66;;;21.13;53.45
80945;BME280;70400;50.934;11.590;2023-07-24T00:05:16;99207.25;;;21.15;53.33
80945;BME280;70400;50.934;11.590;2023-07-24T00:06:07;99202.47;;;21.17;53.17
80945;BME280;70400;50.934;11.590;2023-07-24T00:06:59;99206.19;;;21.16;53.47
80945;BME280;70400;50.934;11.590;2023-07-24T00:07:50;99211.22;;;21.12;53.66
80945;BME280;70400;50.934;11.590;2023-07-24T00:08:41;99211.81;;;21.14;53.09
80945;BME280;70400;50.934;11.590;2023-07-24T00:09:32;99207.13;;;21.10;53.22
80945;BME280;70400;50.934;11.590;2023-07-24T00:10:22;99205.72;;;21.07;53.53
80945;BME280;70400;50.934;11.590;2023-07-24T00:11:13;99207.47;;;21.01;53.79
80945;BME280;70400;50.934;11.590;2023-07-24T00:12:04;99203.81;;;20.96;53.61
80945;BME280;70400;50.934;11.590;2023-07-24T00:12:55;99206.63;;;21.01;53.69
80945;BME280;70400;50.934;11.590;2023-07-24T00:13:46;99202.66;;;21.03;53.98
80945;BME280;70400;50.934;11.590;2023-07-24T00:14:37;99199.66;;;21.00;53.59
80945;BME280;70400;50.934;11.590;2023-07-24T00:15:28;99204.66;;;20.96;53.57
80945;BME280;70400;50.934;11.590;2023-07-24T00:16:19;99195.44;;;20.92;53.87
80945;BME280;70400;50.934;11.590;2023-07-24T00:17:10;99188.56;;;20.96;54.06
80945;BME280;70400;50.934;11.590;2023-07-24T00:18:00;99190.19;;;20.97;53.94
80945;BME280;70400;50.934;11.590;2023-07-24T00:18:51;99194.38;;;20.93;54.23
80945;BME280;70400;50.934;11.590;2023-07-24T00:19:42;99185.91;;;20.96;53.52
80945;BME280;70400;50.934;11.590;2023-07-24T00:20:33;99197.66;;;20.95;53.98
80945;BME280;70400;50.934;11.590;2023-07-24T00:21:24;99187.03;;;20.89;53.87
80945;BME280;70400;50.934;11.590;2023-07-24T00:22:15;99190.53;;;20.89;54.34
80945;BME280;70400;50.934;11.590;2023-07-24T00:23:06;99187.84;;;20.89;53.33
80945;BME280;70400;50.934;11.590;2023-07-24T00:23:56;99186.22;;;20.88;53.84
80945;BME280;70400;50.934;11.590;2023-07-24T00:24:47;99188.88;;;20.88;54.39
80945;BME280;70400;50.934;11.590;2023-07-24T00:25:38;99187.03;;;20.89;53.98
80945;BME280;70400;50.934;11.590;2023-07-24T00:26:29;99180.25;;;20.86;53.64
80945;BME280;70400;50.934;11.590;2023-07-24T00:27:21;99186.47;;;20.87;53.88
80945;BME280;70400;50.934;11.590;2023-07-24T00:28:11;99178.41;;;20.87;53.88
80945;BME280;70400;50.934;11.590;2023-07-24T00:29:02;99183.78;;;20.87;53.68
80945;BME280;70400;50.934;11.590;2023-07-24T00:29:53;99182.94;;;20.86;53.87
80945;BME280;70400;50.934;11.590;2023-07-24T00:30:44;99176.88;;;20.79;54.10
80945;BME280;70400;50.934;11.590;2023-07-24T00:31:35;99180.50;;;20.85;53.88
80945;BME280;70400;50.934;11.590;2023-07-24T00:32:26;99179.31;;;20.80;54.08
80945;BME280;70400;50.934;11.590;2023-07-24T00:33:18;99178.84;;;20.84;53.82
80945;BME280;70400;50.934;11.590;2023-07-24T00:34:09;99182.47;;;20.77;54.07
80945;BME280;70400;50.934;11.590;2023-07-24T00:35:00;99179.19;;;20.75;54.26
80945;BME280;70400;50.934;11.590;2023-07-24T00:35:57;99177.78;;;20.73;54.40
80945;BME280;70400;50.934;11.590;2023-07-24T00:36:48;99182.56;;;20.71;54.40
80945;BME280;70400;50.934;11.590;2023-07-24T00:37:39;99183.81;;;20.68;53.72
80945;BME280;70400;50.934;11.590;2023-07-24T00:38:30;99176.16;;;20.72;54.02
80945;BME280;70400;50.934;11.590;2023-07-24T00:39:21;99178.38;;;20.75;54.27
80945;BME280;70400;50.934;11.590;2023-07-24T00:40:12;99179.66;;;20.72;54.35
80945;BME280;70400;50.934;11.590;2023-07-24T00:41:03;99180.59;;;20.78;53.92
80945;BME280;70400;50.934;11.590;2023-07-24T00:41:54;99173.16;;;20.80;53.80
80945;BME280;70400;50.934;11.590;2023-07-24T00:42:48;99170.47;;;20.80;53.72
80945;BME280;70400;50.934;11.590;2023-07-24T00:43:39;99174.88;;;20.74;54.04
80945;BME280;70400;50.934;11.590;2023-07-24T00:44:30;99171.75;;;20.77;54.14
80945;BME280;70400;50.934;11.590;2023-07-24T00:45:22;99170.88;;;20.65;54.45
80945;BME280;70400;50.934;11.590;2023-07-24T00:46:13;99169.63;;;20.68;54.06
80945;BME280;70400;50.934;11.590;2023-07-24T00:47:05;99170.69;;;20.67;54.48
80945;BME280;70400;50.934;11.590;2023-07-24T00:47:55;99163.09;;;20.75;54.10
80945;BME280;70400;50.934;11.590;2023-07-24T00:48:47;99163.78;;;20.71;54.15
80945;BME280;70400;50.934;11.590;2023-07-24T00:49:38;99167.50;;;20.58;54.62
80945;BME280;70400;50.934;11.590;2023-07-24T00:50:30;99164.66;;;20.53;53.74
80945;BME280;70400;50.934;11.590;2023-07-24T00:51:22;99167.56;;;20.51;54.11
80945;BME280;70400;50.934;11.590;2023-07-24T00:52:14;99162.22;;;20.51;54.42
80945;BME280;70400;50.934;11.590;2023-07-24T00:53:05;99161.28;;;20.46;54.59
80945;BME280;70400;50.934;11.590;2023-07-24T00:54:01;99158.94;;;20.49;55.10
80945;BME280;70400;50.934;11.590;2023-07-24T00:54:53;99153.41;;;20.63;54.98
80945;BME280;70400;50.934;11.590;2023-07-24T00:55:44;99149.78;;;20.57;54.81
80945;BME280;70400;50.934;11.590;2023-07-24T00:56:35;99153.44;;;20.44;55.22
80945;BME280;70400;50.934;11.590;2023-07-24T00:57:26;99145.19;;;20.46;54.94
80945;BME280;70400;50.934;11.590;2023-07-24T00:58:18;99151.13;;;20.48;55.06
80945;BME280;70400;50.934;11.590;2023-07-24T00:59:09;99139.13;;;20.50;54.92
80945;BME280;70400;50.934;11.590;2023-07-24T01:00:01;99134.03;;;20.49;55.17
80945;BME280;70400;50.934;11.590;2023-07-24T01:00:54;99134.56;;;20.39;55.30
80945;BME280;70400;50.934;11.590;2023-07-24T01:01:47;99129.13;;;20.46;55.12
80945;BME280;70400;50.934;11.590;2023-07-24T01:02:38;99126.44;;;20.46;54.99
80945;BME280;70400;50.934;11.590;2023-07-24T01:03:34;99139.50;;;20.54;54.90
80945;BME280;70400;50.934;11.590;2023-07-24T01:04:26;99136.31;;;20.45;55.27
80945;BME280;70400;50.934;11.590;2023-07-24T01:05:17;99146.34;;;20.50;54.90
80945;BME280;70400;50.934;11.590;2023-07-24T01:06:09;99155.06;;;20.45;55.22
80945;BME280;70400;50.934;11.590;2023-07-24T01:07:00;99153.44;;;20.44;54.62
80945;BME280;70400;50.934;11.590;2023-07-24T01:07:54;99151.25;;;20.41;54.91
80945;BME280;70400;50.934;11.590;2023-07-24T01:08:45;99153.66;;;20.43;55.61
80945;BME280;70400;50.934;11.590;2023-07-24T01:09:36;99151.84;;;20.43;54.79
80945;BME280;70400;50.934;11.590;2023-07-24T01:10:27;99158.81;;;20.44;55.08
80945;BME280;70400;50.934;11.590;2023-07-24T01:11:19;99156.59;;;20.41;55.28
80945;BME280;70400;50.934;11.590;2023-07-24T01:12:19;99160.44;;;20.45;55.29
80945;BME280;70400;50.934;11.590;2023-07-24T01:13:19;99161.13;;;20.41;55.04
80945;BME280;70400;50.934;11.590;2023-07-24T01:14:25;99165.91;;;20.38;54.76
80945;BME280;70400;50.934;11.590;2023-07-24T01:15:38;99161.44;;;20.32;55.79
80945;BME280;70400;50.934;11.590;2023-07-24T01:16:37;99163.69;;;20.35;55.10
80945;BME280;70400;50.934;11.590;2023-07-24T01:17:30;99172.28;;;20.37;55.59
80945;BME280;70400;50.934;11.590;2023-07-24T01:18:24;99159.88;;;20.43;55.22
80945;BME280;70400;50.934;11.590;2023-07-24T01:19:37;99156.81;;;20.39;55.12
80945;BME280;70400;50.934;11.590;2023-07-24T01:20:32;99148.19;;;20.37;54.87
80945;BME280;70400;50.934;11.590;2023-07-24T01:21:33;99152.84;;;20.42;54.82
80945;BME280;70400;50.934;11.590;2023-07-24T01:24:41;99148.78;;;20.39;54.38
80945;BME280;70400;50.934;11.590;2023-07-24T01:26:38;99153.91;;;20.41;54.72
80945;BME280;70400;50.934;11.590;2023-07-24T01:27:29;99145.88;;;20.41;55.01
80945;BME280;70400;50.934;11.590;2023-07-24T01:28:20;99145.38;;;20.32;55.20
80945;BME280;70400;50.934;11.590;2023-07-24T01:29:11;99149.44;;;20.35;55.19
80945;BME280;70400;50.934;11.590;2023-07-24T01:30:02;99153.53;;;20.37;55.04
80945;BME280;70400;50.934;11.590;2023-07-24T01:30:54;99150.50;;;20.34;55.01
80945;BME280;70400;50.934;11.590;2023-07-24T01:31:45;99159.00;;;20.31;55.38
80945;BME280;70400;50.934;11.590;2023-07-24T01:32:37;99152.69;;;20.25;55.58
80945;BME280;70400;50.934;11.590;2023-07-24T01:33:29;99150.03;;;20.25;55.37
80945;BME280;70400;50.934;11.590;2023-07-24T01:34:22;99156.41;;;20.24;55.06
80945;BME280;70400;50.934;11.590;2023-07-24T01:35:15;99155.00;;;20.22;55.59
80945;BME280;70400;50.934;11.590;2023-07-24T01:36:07;99157.22;;;20.25;55.55
80945;BME280;70400;50.934;11.590;2023-07-24T01:36:58;99150.22;;;20.24;55.30
80945;BME280;70400;50.934;11.590;2023-07-24T01:37:49;99156.66;;;20.23;55.18
80945;BME280;70400;50.934;11.590;2023-07-24T01:38:41;99157.22;;;20.25;55.64
80945;BME280;70400;50.934;11.590;2023-07-24T01:39:33;99159.53;;;20.21;55.21
80945;BME280;70400;50.934;11.590;2023-07-24T01:40:24;99159.63;;;20.14;55.73
80945;BME280;70400;50.934;11.590;2023-07-24T01:41:15;99161.84;;;20.17;55.36
80945;BME280;70400;50.934;11.590;2023-07-24T01:42:07;99158.72;;;20.21;55.72
80945;BME280;70400;50.934;11.590;2023-07-24T01:42:58;99160.47;;;20.27;55.20
80945;BME280;70400;50.934;11.590;2023-07-24T01:43:50;99167.03;;;20.31;54.15
80945;BME280;70400;50.934;11.590;2023-07-24T01:44:41;99165.25;;;20.25;54.38
80945;BME280;70400;50.934;11.590;2023-07-24T01:45:32;99165.34;;;20.18;55.38
80945;BME280;70400;50.934;11.590;2023-07-24T01:46:22;99158.72;;;20.21;55.69
80945;BME280;70400;50.934;11.590;2023-07-24T01:47:13;99162.28;;;20.14;56.03
80945;BME280;70400;50.934;11.590;2023-07-24T01:48:04;99160.53;;;20.08;55.92
80945;BME280;70400;50.934;11.590;2023-07-24T01:48:56;99166.09;;;20.07;55.81
80945;BME280;70400;50.934;11.590;2023-07-24T01:49:47;99159.94;;;20.06;55.96
80945;BME280;70400;50.934;11.590;2023-07-24T01:50:38;99166.63;;;20.15;55.62
80945;BME280;70400;50.934;11.590;2023-07-24T01:51:29;99162.06;;;20.16;55.73
80945;BME280;70400;50.934;11.590;2023-07-24T01:52:19;99162.28;;;20.14;55.42
80945;BME280;70400;50.934;11.590;2023-07-24T01:53:10;99154.19;;;20.21;55.25
80945;BME280;70400;50.934;11.590;2023-07-24T01:54:03;99160.47;;;20.27;55.21
80945;BME280;70400;50.934;11.590;2023-07-24T01:54:54;99160.47;;;20.27;55.23
80945;BME280;70400;50.934;11.590;2023-07-24T01:55:45;99155.44;;;20.19;55.71
80945;BME280;70400;50.934;11.590;2023-07-24T01:56:38;99160.66;;;20.13;55.83
80945;BME280;70400;50.934;11.590;2023-07-24T01:57:30;99159.63;;;20.14;55.74
80945;BME280;70400;50.934;11.590;2023-07-24T01:58:21;99160.88;;;20.12;55.67
80945;BME280;70400;50.934;11.590;2023-07-24T01:59:13;99162.06;;;20.16;55.78
80945;BME280;70400;50.934;11.590;2023-07-24T02:00:04;99151.72;;;20.20;55.28
80945;BME280;70400;50.934;11.590;2023-07-24T02:00:55;99158.72;;;20.21;54.58
80945;BME280;70400;50.934;11.590;2023-07-24T02:01:46;99156.50;;;20.17;55.23
80945;BME280;70400;50.934;11.590;2023-07-24T02:02:38;99157.19;;;20.13;54.74
80945;BME280;70400;50.934;11.590;2023-07-24T02:03:28;99153.31;;;20.09;55.62
80945;BME280;70400;50.934;11.590;2023-07-24T02:04:20;99154.72;;;20.11;55.17
80945;BME280;70400;50.934;11.590;2023-07-24T02:05:12;99153.91;;;20.11;55.70
80945;BME280;70400;50.934;11.590;2023-07-24T02:06:05;99149.22;;;20.06;55.63
80945;BME280;70400;50.934;11.590;2023-07-24T02:06:56;99147.22;;;20.02;56.00
80945;BME280;70400;50.934;11.590;2023-07-24T02:07:47;99153.63;;;20.01;54.78
80945;BME280;70400;50.934;11.590;2023-07-24T02:08:38;99147.66;;;19.99;56.36
80945;BME280;70400;50.934;11.590;2023-07-24T02:09:29;99147.47;;;20.00;56.01
80945;BME280;70400;50.934;11.590;2023-07-24T02:10:20;99145.44;;;19.95;56.07
80945;BME280;70400;50.934;11.590;2023-07-24T02:11:10;99149.59;;;19.91;56.53
80945;BME280;70400;50.934;11.590;2023-07-24T02:12:01;99139.16;;;19.90;56.86
80945;BME280;70400;50.934;11.590;2023-07-24T02:12:53;99148.44;;;19.87;56.39
80945;BME280;70400;50.934;11.590;2023-07-24T02:13:44;99142.25;;;19.87;55.99
80945;BME280;70400;50.934;11.590;2023-07-24T02:14:35;99137.88;;;19.92;56.90
80945;BME280;70400;50.934;11.590;2023-07-24T02:15:26;99139.28;;;19.95;56.57
80945;BME280;70400;50.934;11.590;2023-07-24T02:16:17;99136.31;;;19.85;57.06
80945;BME280;70400;50.934;11.590;2023-07-24T02:17:08;99131.78;;;19.85;57.03
80945;BME280;70400;50.934;11.590;2023-07-24T02:17:59;99138.41;;;19.83;57.13
80945;BME280;70400;50.934;11.590;2023-07-24T02:18:49;99133.72;;;19.78;57.82
80945;BME280;70400;50.934;11.590;2023-07-24T02:19:40;99130.53;;;19.69;58.23
80945;BME280;70400;50.934;11.590;2023-07-24T02:20:31;99134.38;;;19.73;57.88
80945;BME280;70400;50.934;11.590;2023-07-24T02:21:22;99130.53;;;19.69;57.96
80945;BME280;70400;50.934;11.590;2023-07-24T02:22:15;99130.09;;;19.72;57.49
80945;BME280;70400;50.934;11.590;2023-07-24T02:23:08;99136.47;;;19.71;57.36
80945;BME280;70400;50.934;11.590;2023-07-24T02:23:59;99139.19;;;19.65;58.37
80945;BME280;70400;50.934;11.590;2023-07-24T02:24:50;99132.66;;;19.61;57.51
80945;BME280;70400;50.934;11.590;2023-07-24T02:25:41;99132.88;;;19.59;57.78
80945;BME280;70400;50.934;11.590;2023-07-24T02:26:33;99128.34;;;19.60;57.60
80945;BME280;70400;50.934;11.590;2023-07-24T02:27:27;99134.66;;;19.65;57.73
80945;BME280;70400;50.934;11.590;2023-07-24T02:28:20;99128.06;;;19.68;57.32
80945;BME280;70400;50.934;11.590;2023-07-24T02:29:11;99126.81;;;19.70;57.24
80945;BME280;70400;50.934;11.590;2023-07-24T02:30:02;99135.19;;;19.74;56.99
80945;BME280;70400;50.934;11.590;2023-07-24T02:30:53;99133.22;;;19.69;56.32
80945;BME280;70400;50.934;11.590;2023-07-24T02:31:50;99133.50;;;19.80;56.56
80945;BME280;70400;50.934;11.590;2023-07-24T02:32:41;99128.00;;;19.75;56.66
80945;BME280;70400;50.934;11.590;2023-07-24T02:33:31;99122.91;;;19.66;57.02
80945;BME280;70400;50.934;11.590;2023-07-24T02:34:22;99125.81;;;19.65;57.01
80945;BME280;70400;50.934;11.590;2023-07-24T02:35:16;99128.50;;;19.65;57.08
80945;BME280;70400;50.934;11.590;2023-07-24T02:36:09;99126.03;;;19.63;56.76
80945;BME280;70400;50.934;11.590;2023-07-24T02:37:00;99116.84;;;19.59;56.92
80945;BME280;70400;50.934;11.590;2023-07-24T02:37:51;99119.88;;;19.63;56.75
80945;BME280;70400;50.934;11.590;2023-07-24T02:38:42;99116.16;;;19.64;57.01
80945;BME280;70400;50.934;11.590;2023-07-24T02:39:33;99107.97;;;19.59;56.81
80945;BME280;70400;50.934;11.590;2023-07-24T02:40:23;99114.88;;;19.66;56.95
80945;BME280;70400;50.934;11.590;2023-07-24T02:41:14;99116.75;;;19.66;56.94
80945;BME280;70400;50.934;11.590;2023-07-24T02:42:05;99116.16;;;19.64;56.99
80945;BME280;70400;50.934;11.590;2023-07-24T02:42:56;99116.56;;;19.67;56.80
80945;BME280;70400;50.934;11.590;2023-07-24T02:43:47;99125.59;;;19.66;56.53
80945;BME280;70400;50.934;11.590;2023-07-24T02:44:38;99113.09;;;19.60;56.89
80945;BME280;70400;50.934;11.590;2023-07-24T02:45:28;99112.97;;;19.55;57.40
80945;BME280;70400;50.934;11.590;2023-07-24T02:46:20;99119.94;;;19.56;57.40
80945;BME280;70400;50.934;11.590;2023-07-24T02:47:11;99117.25;;;19.56;56.32
80945;BME280;70400;50.934;11.590;2023-07-24T02:48:02;99117.41;;;19.61;56.67
80945;BME280;70400;50.934;11.590;2023-07-24T02:48:53;99117.41;;;19.61;56.23
80945;BME280;70400;50.934;11.590;2023-07-24T02:49:44;99114.31;;;19.64;56.54
80945;BME280;70400;50.934;11.590;2023-07-24T02:50:35;99115.75;;;19.67;56.44
80945;BME280;70400;50.934;11.590;2023-07-24T02:51:25;99114.50;;;19.69;56.11
80945;BME280;70400;50.934;11.590;2023-07-24T02:52:16;99114.50;;;19.69;55.42
80945;BME280;70400;50.934;11.590;2023-07-24T02:53:07;99116.91;;;19.71;56.01
80945;BME280;70400;50.934;11.590;2023-07-24T02:53:59;99120.06;;;19.68;55.65
80945;BME280;70400;50.934;11.590;2023-07-24T02:54:50;99116.09;;;19.70;55.68
80945;BME280;70400;50.934;11.590;2023-07-24T02:55:44;99118.56;;;19.72;55.49
80945;BME280;70400;50.934;11.590;2023-07-24T02:56:35;99114.84;;;19.73;55.26
80945;BME280;70400;50.934;11.590;2023-07-24T02:57:26;99114.19;;;19.78;55.43
80945;BME280;70400;50.934;11.590;2023-07-24T02:58:17;99117.53;;;19.73;55.42
80945;BME280;70400;50.934;11.590;2023-07-24T02:59:07;99115.66;;;19.73;55.69
80945;BME280;70400;50.934;11.590;2023-07-24T02:59:58;99120.41;;;19.71;55.58
80945;BME280;70400;50.934;11.590;2023-07-24T03:00:49;99110.53;;;19.72;55.43
80945;BME280;70400;50.934;11.590;2023-07-24T03:01:40;99109.03;;;19.76;54.58
80945;BME280;70400;50.934;11.590;2023-07-24T03:02:31;99112.09;;;19.80;55.07
80945;BME280;70400;50.934;11.590;2023-07-24T03:03:22;99110.44;;;19.79;55.03
80945;BME280;70400;50.934;11.590;2023-07-24T03:04:13;99112.31;;;19.78;55.51
80945;BME280;70400;50.934;11.590;2023-07-24T03:05:04;99113.38;;;19.77;55.21
80945;BME280;70400;50.934;11.590;2023-07-24T03:05:55;99113.56;;;19.76;55.01
80945;BME280;70400;50.934;11.590;2023-07-24T03:06:46;99109.03;;;19.76;55.48
80945;BME280;70400;50.934;11.590;2023-07-24T03:07:37;99109.50;;;19.73;55.43
80945;BME280;70400;50.934;11.590;2023-07-24T03:08:28;99108.38;;;19.81;55.68
80945;BME280;70400;50.934;11.590;2023-07-24T03:09:19;99108.81;;;19.78;55.24
80945;BME280;70400;50.934;11.590;2023-07-24T03:10:10;99109.69;;;19.71;55.73
80945;BME280;70400;50.934;11.590;2023-07-24T03:11:04;99102.06;;;19.75;55.41
80945;BME280;70400;50.934;11.590;2023-07-24T03:11:56;99112.38;;;19.71;55.38
80945;BME280;70400;50.934;11.590;2023-07-24T03:12:47;99111.13;;;19.74;55.40
80945;BME280;70400;50.934;11.590;2023-07-24T03:13:38;99111.34;;;19.72;55.40
80945;BME280;70400;50.934;11.590;2023-07-24T03:14:31;99107.78;;;19.79;55.15
80945;BME280;70400;50.934;11.590;2023-07-24T03:15:22;99111.97;;;19.75;55.09
80945;BME280;70400;50.934;11.590;2023-07-24T03:16:13;99105.19;;;19.72;55.53
80945;BME280;70400;50.934;11.590;2023-07-24T03:17:05;99106.22;;;19.71;55.26
80945;BME280;70400;50.934;11.590;2023-07-24T03:17:56;99104.34;;;19.71;55.31
80945;BME280;70400;50.934;11.590;2023-07-24T03:18:46;99104.41;;;19.65;55.39
80945;BME280;70400;50.934;11.590;2023-07-24T03:19:37;99104.19;;;19.66;55.46
80945;BME280;70400;50.934;11.590;2023-07-24T03:20:28;99100.88;;;19.71;55.52
80945;BME280;70400;50.934;11.590;2023-07-24T03:21:20;99101.91;;;19.70;55.03
80945;BME280;70400;50.934;11.590;2023-07-24T03:22:11;99099.69;;;19.67;55.02
80945;BME280;70400;50.934;11.590;2023-07-24T03:23:02;99102.41;;;19.60;55.24
80945;BME280;70400;50.934;11.590;2023-07-24T03:23:53;99102.63;;;19.59;55.45
80945;BME280;70400;50.934;11.590;2023-07-24T03:24:44;99099.75;;;19.60;55.82
80945;BME280;70400;50.934;11.590;2023-07-24T03:25:35;99095.19;;;19.61;55.40
80945;BME280;70400;50.934;11.590;2023-07-24T03:26:26;99100.34;;;19.62;55.22
80945;BME280;70400;50.934;11.590;2023-07-24T03:27:17;99096.59;;;19.63;55.73
80945;BME280;70400;50.934;11.590;2023-07-24T03:28:09;99098.47;;;19.63;55.76
80945;BME280;70400;50.934;11.590;2023-07-24T03:29:00;99105.41;;;19.70;55.17
80945;BME280;70400;50.934;11.590;2023-07-24T03:29:51;99093.13;;;19.63;55.28
80945;BME280;70400;50.934;11.590;2023-07-24T03:30:44;99098.84;;;19.66;55.36
80945;BME280;70400;50.934;11.590;2023-07-24T03:31:35;99101.31;;;19.68;55.14
80945;BME280;70400;50.934;11.590;2023-07-24T03:32:26;99096.84;;;19.62;55.28
80945;BME280;70400;50.934;11.590;2023-07-24T03:33:17;99100.34;;;19.62;55.13
80945;BME280;70400;50.934;11.590;2023-07-24T03:34:08;99097.41;;;19.64;55.37
80945;BME280;70400;50.934;11.590;2023-07-24T03:34:59;99093.31;;;19.68;55.18
80945;BME280;70400;50.934;11.590;2023-07-24T03:35:50;99103.38;;;19.66;55.48
80945;BME280;70400;50.934;11.590;2023-07-24T03:36:42;99101.81;;;19.58;55.60
80945;BME280;70400;50.934;11.590;2023-07-24T03:37:35;99098.53;;;19.56;55.72
80945;BME280;70400;50.934;11.590;2023-07-24T03:38:27;99100.53;;;19.61;55.53
80945;BME280;70400;50.934;11.590;2023-07-24T03:39:17;99093.19;;;19.56;55.30
80945;BME280;70400;50.934;11.590;2023-07-24T03:40:08;99097.72;;;19.56;54.76
80945;BME280;70400;50.934;11.590;2023-07-24T03:40:59;99089.25;;;19.59;55.11
80945;BME280;70400;50.934;11.590;2023-07-24T03:41:53;99086.81;;;19.57;55.69
80945;BME280;70400;50.934;11.590;2023-07-24T03:42:44;99090.91;;;19.60;55.18
80945;BME280;70400;50.934;11.590;2023-07-24T03:43:35;99081.00;;;19.60;55.71
80945;BME280;70400;50.934;11.590;2023-07-24T03:44:25;99086.97;;;19.62;55.69
80945;BME280;70400;50.934;11.590;2023-07-24T03:45:16;99089.00;;;19.67;54.53
80945;BME280;70400;50.934;11.590;2023-07-24T03:46:07;99087.75;;;19.69;55.25
80945;BME280;70400;50.934;11.590;2023-07-24T03:46:58;99086.00;;;19.75;55.37
80945;BME280;70400;50.934;11.590;2023-07-24T03:47:49;99078.66;;;19.70;55.55
80945;BME280;70400;50.934;11.590;2023-07-24T03:48:40;99079.84;;;19.75;54.83
80945;BME280;70400;50.934;11.590;2023-07-24T03:49:30;99079.84;;;19.75;54.88
80945;BME280;70400;50.934;11.590;2023-07-24T03:50:21;99073.59;;;19.81;54.64
80945;BME280;70400;50.934;11.590;2023-07-24T03:51:12;99071.13;;;19.79;54.55
80945;BME280;70400;50.934;11.590;2023-07-24T03:52:04;99085.34;;;19.80;54.80
80945;BME280;70400;50.934;11.590;2023-07-24T03:52:55;99075.00;;;19.83;54.29
80945;BME280;70400;50.934;11.590;2023-07-24T03:53:46;99075.88;;;19.95;54.35
80945;BME280;70400;50.934;11.590;2023-07-24T03:54:37;99080.09;;;20.03;54.00
80945;BME280;70400;50.934;11.590;2023-07-24T03:55:28;99077.75;;;20.07;53.81
80945;BME280;70400;50.934;11.590;2023-07-24T03:56:19;99076.88;;;20.13;53.55
80945;BME280;70400;50.934;11.590;2023-07-24T03:57:10;99075.53;;;20.04;53.85
80945;BME280;70400;50.934;11.590;2023-07-24T03:58:01;99079.13;;;19.98;53.77
80945;BME280;70400;50.934;11.590;2023-07-24T03:58:52;99076.81;;;20.01;54.06
80945;BME280;70400;50.934;11.590;2023-07-24T03:59:43;99080.69;;;20.05;53.84
80945;BME280;70400;50.934;11.590;2023-07-24T04:00:34;99077.69;;;20.13;53.56
80945;BME280;70400;50.934;11.590;2023-07-24T04:01:25;99080.94;;;20.15;53.82
80945;BME280;70400;50.934;11.590;2023-07-24T04:02:17;99074.31;;;20.18;53.02
80945;BME280;70400;50.934;11.590;2023-07-24T04:03:08;99075.59;;;20.15;53.45
80945;BME280;70400;50.934;11.590;2023-07-24T04:03:59;99082.22;;;20.13;54.29
80945;BME280;70400;50.934;11.590;2023-07-24T04:04:50;99078.00;;;20.05;53.99
80945;BME280;70400;50.934;11.590;2023-07-24T04:05:41;99069.38;;;20.03;53.94
80945;BME280;70400;50.934;11.590;2023-07-24T04:06:32;99072.50;;;20.00;54.34
80945;BME280;70400;50.934;11.590;2023-07-24T04:07:23;99078.53;;;19.95;54.18
80945;BME280;70400;50.934;11.590;2023-07-24T04:08:14;99076.69;;;19.96;54.47
80945;BME280;70400;50.934;11.590;2023-07-24T04:09:05;99077.72;;;19.95;54.41
80945;BME280;70400;50.934;11.590;2023-07-24T04:09:56;99073.06;;;19.90;54.69
80945;BME280;70400;50.934;11.590;2023-07-24T04:10:46;99076.75;;;19.89;54.60
80945;BME280;70400;50.934;11.590;2023-07-24T04:11:37;99067.03;;;19.95;54.31
80945;BME280;70400;50.934;11.590;2023-07-24T04:12:29;99068.91;;;20.06;54.79
80945;BME280;70400;50.934;11.590;2023-07-24T04:13:20;99078.69;;;20.01;53.82
80945;BME280;70400;50.934;11.590;2023-07-24T04:14:10;99074.13;;;20.01;54.09
80945;BME280;70400;50.934;11.590;2023-07-24T04:15:01;99077.88;;;20.00;53.88
80945;BME280;70400;50.934;11.590;2023-07-24T04:15:52;99073.09;;;20.02;53.89
80945;BME280;70400;50.934;11.590;2023-07-24T04:16:43;99081.25;;;20.07;54.12
80945;BME280;70400;50.934;11.590;2023-07-24T04:17:34;99074.88;;;20.08;53.94
80945;BME280;70400;50.934;11.590;2023-07-24T04:18:26;99062.28;;;20.09;54.10
80945;BME280;70400;50.934;11.590;2023-07-24T04:19:17;99055.53;;;20.06;53.69
80945;BME280;70400;50.934;11.590;2023-07-24T04:20:08;99059.41;;;20.10;53.54
80945;BME280;70400;50.934;11.590;2023-07-24T04:20:59;99062.50;;;20.07;53.79
80945;BME280;70400;50.934;11.590;2023-07-24T04:21:50;99058.72;;;20.15;53.92
80945;BME280;70400;50.934;11.590;2023-07-24T04:22:41;99064.44;;;20.19;53.66
80945;BME280;70400;50.934;11.590;2023-07-24T04:23:32;99059.53;;;20.15;53.33
80945;BME280;70400;50.934;11.590;2023-07-24T04:24:23;99056.47;;;20.12;53.65
80945;BME280;70400;50.934;11.590;2023-07-24T04:25:14;99060.13;;;20.17;53.70
80945;BME280;70400;50.934;11.590;2023-07-24T04:26:05;99066.84;;;20.08;53.59
80945;BME280;70400;50.934;11.590;2023-07-24T04:26:56;99056.72;;;20.10;53.43
80945;BME280;70400;50.934;11.590;2023-07-24T04:27:47;99065.38;;;20.24;53.34
80945;BME280;70400;50.934;11.590;2023-07-24T04:28:38;99057.00;;;20.32;53.31
80945;BME280;70400;50.934;11.590;2023-07-24T04:29:29;99058.78;;;20.38;52.57
80945;BME280;70400;50.934;11.590;2023-07-24T04:30:20;99060.53;;;20.45;52.85
80945;BME280;70400;50.934;11.590;2023-07-24T04:31:11;99057.38;;;20.48;52.62
80945;BME280;70400;50.934;11.590;2023-07-24T04:32:02;99060.91;;;20.48;52.58
80945;BME280;70400;50.934;11.590;2023-07-24T04:32:53;99063.19;;;20.45;52.53